Uva, Wyoming
Current Conditions -  °F | °C
As of 2:15 PM on Saturday 25 Oct 2014 (Local Time) from KGUR Reporting Station
Clear Clear  
Wind Chill: 87°   Ceiling: Unl
Heat Index: 87°   Visibility: 10mi
Dew Point: 33°   Wind: 3mph
Humidity: 14%   Direction: 110°ESE
Pressure: 30.03"   Gusts: NA
Location:  42.0178°N, 105.098°W
Report Text: KGUR 252015Z AUTO 11003KT 10SM CLR 31/01 A3003 RMK AO2 T03050005
Loading
Personal Weather Stations






























Interactive Weather Map
Tropical Storm Tracking
New forecast layout! Learn more

10-Day Weather Forecast

Advertisements
Track Severe Weather on mobile